Time;durP1;ratioP1;P1;durP2;ratioP2;P2;SDS_P1;SDS_P2;PMS_P1;PMS_P2;Temp;Humidity;BMP_temperature;BMP_pressure;BME280_temperature;BME280_humidity;BME280_pressure;Samples;Min_cycle;Max_cycle;Signal;HPM_P1;HPM_P2
2022/07/01 00:00:19;;;;;;;6.07;3.97;;;;;;;18.76;97.75;93138.97;5009723;28;20119;-75
2022/07/01 00:02:45;;;;;;;5.70;3.55;;;;;;;18.72;97.86;93146.53;5009599;28;20112;-76
2022/07/01 00:05:12;;;;;;;5.93;3.92;;;;;;;18.60;98.81;93138.97;5009487;28;20046;-76
2022/07/01 00:07:39;;;;;;;4.95;3.88;;;;;;;18.50;99.49;93133.78;5009660;28;20046;-76
2022/07/01 00:10:07;;;;;;;4.72;4.00;;;;;;;18.58;99.08;93135.88;5006569;28;20053;-76
2022/07/01 00:12:35;;;;;;;5.85;3.72;;;;;;;18.63;99.40;93138.47;5008946;28;20096;-76
2022/07/01 00:15:01;;;;;;;6.95;3.83;;;;;;;18.61;99.77;93130.13;5008273;28;20510;-76
2022/07/01 00:17:28;;;;;;;5.25;3.58;;;;;;;18.65;99.16;93146.78;5009421;28;20414;-76
2022/07/01 00:19:55;;;;;;;5.13;3.72;;;;;;;18.68;98.64;93148.88;5009415;28;20056;-76
2022/07/01 00:22:22;;;;;;;5.57;3.50;;;;;;;18.66;98.35;93148.34;5009227;28;20046;-76
2022/07/01 00:24:49;;;;;;;5.25;3.67;;;;;;;18.56;99.68;93154.31;5009413;28;20453;-76
2022/07/01 00:27:16;;;;;;;4.70;3.72;;;;;;;18.40;100.00;93144.97;5009064;28;20042;-76
2022/07/01 00:29:44;;;;;;;6.35;4.30;;;;;;;18.49;99.96;93155.63;5009204;28;20428;-76
2022/07/01 00:32:10;;;;;;;5.35;3.85;;;;;;;18.43;100.00;93163.44;5009181;28;20057;-76
2022/07/01 00:34:38;;;;;;;10.05;4.55;;;;;;;18.35;100.00;93165.75;5008936;28;20075;-76
2022/07/01 00:37:04;;;;;;;6.55;4.53;;;;;;;18.22;100.00;93165.22;5009028;28;20058;-76
2022/07/01 00:39:33;;;;;;;7.85;4.00;;;;;;;18.23;100.00;93166.03;5009006;28;20046;-76
2022/07/01 00:42:01;;;;;;;6.18;4.25;;;;;;;18.16;100.00;93163.66;5009104;28;20068;-76
2022/07/01 00:44:29;;;;;;;5.82;4.40;;;;;;;18.13;100.00;93164.97;5006667;28;20053;-76
2022/07/01 00:46:59;;;;;;;6.40;4.45;;;;;;;18.11;100.00;93158.47;5008782;28;20548;-76
2022/07/01 00:49:26;;;;;;;6.63;4.10;;;;;;;18.12;100.00;93170.41;5009389;28;20045;-76
2022/07/01 00:51:53;;;;;;;6.75;4.03;;;;;;;18.12;100.00;93176.41;5008527;28;20092;-76
2022/07/01 00:54:21;;;;;;;7.70;4.32;;;;;;;18.06;100.00;93168.81;5008559;28;20094;-76
2022/07/01 00:56:48;;;;;;;6.65;4.95;;;;;;;18.10;100.00;93168.06;5008461;28;20517;-76
2022/07/01 00:59:15;;;;;;;6.82;4.43;;;;;;;18.17;100.00;93180.81;5009174;28;20484;-76
2022/07/01 01:01:42;;;;;;;5.93;4.18;;;;;;;18.15;100.00;93178.47;5008474;28;20053;-76
2022/07/01 01:04:11;;;;;;;7.57;4.90;;;;;;;18.15;100.00;93175.13;5008571;28;20164;-76
2022/07/01 01:06:37;;;;;;;6.45;4.13;;;;;;;18.15;100.00;93169.91;5008366;28;20046;-76
2022/07/01 01:09:05;;;;;;;6.38;4.10;;;;;;;18.17;100.00;93167.81;5008513;28;20038;-77
2022/07/01 01:11:32;;;;;;;7.13;4.13;;;;;;;18.15;100.00;93172.50;5008688;28;20391;-77
2022/07/01 01:13:59;;;;;;;7.72;4.72;;;;;;;18.00;100.00;93168.81;5008494;28;20152;-77
2022/07/01 01:16:26;;;;;;;6.38;4.68;;;;;;;18.12;100.00;93179.00;5008660;28;20046;-76
2022/07/01 01:18:54;;;;;;;7.47;4.70;;;;;;;18.10;100.00;93175.88;5008547;28;20130;-76
2022/07/01 01:21:22;;;;;;;8.35;5.28;;;;;;;18.07;100.00;93173.00;5008692;28;20133;-75
2022/07/01 01:23:49;;;;;;;8.30;5.43;;;;;;;18.02;100.00;93179.72;5006030;28;20165;-76
2022/07/01 01:26:21;;;;;;;7.95;5.40;;;;;;;18.00;100.00;93184.41;5009811;28;20084;-76
2022/07/01 01:28:48;;;;;;;7.97;5.15;;;;;;;17.95;100.00;93183.63;5012843;28;20049;-75
2022/07/01 01:31:15;;;;;;;8.00;5.80;;;;;;;17.97;100.00;93192.69;5012736;28;20454;-75
2022/07/01 01:33:42;;;;;;;10.55;5.63;;;;;;;17.98;100.00;93194.28;5012087;28;20050;-75
2022/07/01 01:36:09;;;;;;;8.38;5.55;;;;;;;17.90;100.00;93179.97;5011943;28;20113;-76
2022/07/01 01:38:38;;;;;;;7.40;4.88;;;;;;;17.95;100.00;93199.97;5012267;28;20046;-75
2022/07/01 01:41:05;;;;;;;8.45;5.68;;;;;;;17.88;100.00;93189.81;5012295;28;20383;-76
2022/07/01 01:43:34;;;;;;;8.20;5.13;;;;;;;17.68;100.00;93181.97;5011849;28;20449;-76
2022/07/01 01:46:02;;;;;;;10.15;4.95;;;;;;;17.67;100.00;93191.56;5012139;28;20078;-76
2022/07/01 01:48:29;;;;;;;8.98;4.97;;;;;;;17.58;100.00;93195.69;5011894;28;20558;-76
2022/07/01 01:50:56;;;;;;;7.55;5.10;;;;;;;17.48;100.00;93186.03;5012191;28;20104;-75
2022/07/01 01:53:23;;;;;;;8.00;5.43;;;;;;;17.52;100.00;93194.88;5011780;28;20061;-76
2022/07/01 01:55:51;;;;;;;7.20;4.90;;;;;;;17.48;100.00;93192.03;5011437;28;20060;-75
2022/07/01 01:58:18;;;;;;;9.23;6.03;;;;;;;17.43;100.00;93193.81;5012035;28;20085;-75
2022/07/01 02:00:45;;;;;;;10.52;6.30;;;;;;;17.39;100.00;93200.56;5011995;28;20092;-76
2022/07/01 02:03:12;;;;;;;12.73;6.57;;;;;;;17.36;100.00;93202.59;5011917;28;20038;-75
2022/07/01 02:05:39;;;;;;;12.57;6.47;;;;;;;17.32;100.00;93200.75;5011648;28;20088;-76
2022/07/01 02:08:06;;;;;;;11.90;6.88;;;;;;;17.28;100.00;93203.09;5012089;28;20054;-76
2022/07/01 02:10:32;;;;;;;13.10;6.45;;;;;;;17.17;100.00;93194.44;5011843;28;20114;-76
2022/07/01 02:13:01;;;;;;;11.38;6.68;;;;;;;17.21;100.00;93195.50;5012112;28;20387;-76
2022/07/01 02:15:27;;;;;;;12.40;6.82;;;;;;;17.21;100.00;93198.09;5011823;28;20461;-76
2022/07/01 02:17:56;;;;;;;13.55;6.40;;;;;;;17.28;100.00;93199.69;5012152;28;20046;-75
2022/07/01 02:20:23;;;;;;;10.10;6.10;;;;;;;17.33;100.00;93202.31;5012094;28;20050;-75
2022/07/01 02:22:51;;;;;;;9.75;6.38;;;;;;;17.36;100.00;93202.59;5011717;28;20107;-75
2022/07/01 02:25:18;;;;;;;10.98;6.47;;;;;;;17.37;100.00;93203.38;5012043;28;20142;-75
2022/07/01 02:27:45;;;;;;;11.25;6.00;;;;;;;17.45;100.00;93212.53;5011775;28;20096;-75
2022/07/01 02:30:13;;;;;;;9.73;6.55;;;;;;;17.41;100.00;93214.06;5011680;28;20563;-75
2022/07/01 02:32:40;;;;;;;12.23;6.40;;;;;;;17.30;100.00;93221.00;5012011;28;20042;-76
2022/07/01 02:35:08;;;;;;;11.25;7.00;;;;;;;17.22;100.00;93215.25;5012029;28;20058;-76
2022/07/01 02:37:34;;;;;;;10.07;6.50;;;;;;;17.05;100.00;93197.25;4991634;28;20051;-76
2022/07/01 02:40:01;;;;;;;11.05;7.07;;;;;;;17.17;100.00;93219.63;4989986;28;20051;-76
2022/07/01 02:42:34;;;;;;;14.32;6.78;;;;;;;17.09;100.00;93219.06;4990416;28;20410;-76
2022/07/01 02:45:02;;;;;;;14.50;8.07;;;;;;;17.05;100.00;93212.03;4990753;28;20502;-77
2022/07/01 02:47:33;;;;;;;14.88;7.53;;;;;;;17.10;100.00;93222.44;4991980;28;20082;-76
2022/07/01 02:50:00;;;;;;;15.43;8.52;;;;;;;17.02;100.00;93222.88;4991786;28;20057;-76
2022/07/01 02:52:27;;;;;;;15.05;7.97;;;;;;;16.93;100.00;93231.13;4991755;28;20042;-76
2022/07/01 02:54:54;;;;;;;13.30;7.75;;;;;;;16.85;100.00;93218.59;4991671;28;20055;-76
2022/07/01 02:57:21;;;;;;;16.17;7.85;;;;;;;16.93;100.00;93230.31;4991536;28;20046;-76
2022/07/01 02:59:47;;;;;;;12.93;7.95;;;;;;;16.91;100.00;93229.81;4991927;28;20050;-76
2022/07/01 03:02:14;;;;;;;13.27;8.32;;;;;;;16.91;100.00;93233.19;4991928;28;20050;-76
2022/07/01 03:04:42;;;;;;;15.10;7.63;;;;;;;16.91;100.00;93240.19;4990712;28;20081;-76
2022/07/01 03:07:09;;;;;;;17.23;8.80;;;;;;;16.89;100.00;93234.47;4979457;28;20527;-76
2022/07/01 03:09:36;;;;;;;14.98;8.15;;;;;;;16.80;100.00;93240.09;4991478;28;20530;-76
2022/07/01 03:12:24;;;;;;;16.02;8.80;;;;;;;16.75;100.00;93228.91;4991223;28;20046;-76
2022/07/01 03:14:51;;;;;;;15.88;8.63;;;;;;;16.76;100.00;93226.06;4985425;28;20094;-76
2022/07/01 03:17:17;;;;;;;27.83;11.00;;;;;;;16.81;100.00;93235.69;4978294;28;20042;-76
2022/07/01 03:19:46;;;;;;;22.08;9.35;;;;;;;16.75;100.00;93224.50;4990206;28;20050;-75
2022/07/01 03:22:13;;;;;;;24.73;8.75;;;;;;;16.78;100.00;93236.19;4991093;28;20609;-75
2022/07/01 03:24:40;;;;;;;23.38;9.18;;;;;;;16.78;100.00;93243.97;4991267;28;20050;-75
2022/07/01 03:27:07;;;;;;;16.33;8.85;;;;;;;16.80;100.00;93240.09;4991292;28;20054;-75
2022/07/01 03:29:33;;;;;;;16.58;9.00;;;;;;;16.76;100.00;93241.63;4990973;28;20054;-75
2022/07/01 03:32:00;;;;;;;19.08;7.90;;;;;;;16.79;100.00;93240.34;4990905;28;20100;-75
2022/07/01 03:34:27;;;;;;;14.77;8.27;;;;;;;16.83;100.00;93236.22;4991135;28;20058;-75
2022/07/01 03:36:55;;;;;;;16.65;7.97;;;;;;;16.85;100.00;93241.16;5005081;28;20054;-76
2022/07/01 03:39:22;;;;;;;16.35;8.13;;;;;;;16.88;100.00;93253.63;5010825;28;20045;-75
2022/07/01 03:41:49;;;;;;;14.77;8.27;;;;;;;16.85;100.00;93247.13;5010630;28;20115;-75
2022/07/01 03:44:15;;;;;;;15.10;7.63;;;;;;;16.85;100.00;93244.53;5010386;28;20046;-75
2022/07/01 03:46:42;;;;;;;11.73;7.18;;;;;;;16.87;100.00;93242.50;5010680;28;20057;-75
2022/07/01 03:49:09;;;;;;;15.95;7.88;;;;;;;16.92;100.00;93241.75;5010100;28;20581;-75
2022/07/01 03:51:36;;;;;;;12.98;7.05;;;;;;;16.75;100.00;93218.53;5010537;28;20076;-76
2022/07/01 03:56:48;;;;;;;13.05;7.15;;;;;;;17.03;100.00;93255.63;5009564;28;20123;-76
2022/07/01 03:59:15;;;;;;;12.85;7.60;;;;;;;17.04;100.00;93249.38;5009548;28;20489;-76
2022/07/01 04:01:42;;;;;;;16.02;7.93;;;;;;;17.07;100.00;93251.47;5009774;28;20065;-76
2022/07/01 04:04:10;;;;;;;17.20;8.15;;;;;;;17.17;100.00;93255.97;5009995;28;20112;-77
2022/07/01 04:06:38;;;;;;;16.35;8.52;;;;;;;17.23;100.00;93247.19;5009814;28;20053;-76
2022/07/01 04:09:06;;;;;;;20.15;8.65;;;;;;;17.30;100.00;93268.50;5005751;28;20474;-75
2022/07/01 04:11:33;;;;;;;14.82;8.43;;;;;;;17.36;100.00;93262.31;5005807;28;20049;-75
2022/07/01 04:14:00;;;;;;;17.83;8.52;;;;;;;17.39;100.00;93260.28;5009806;28;20085;-75
2022/07/01 04:16:27;;;;;;;16.08;7.40;;;;;;;17.38;100.00;93250.88;5005498;28;20050;-75
2022/07/01 04:18:54;;;;;;;13.40;7.95;;;;;;;17.49;100.00;93255.91;5009807;28;20058;-75
2022/07/01 04:24:08;;;;;;;18.42;8.10;;;;;;;17.62;100.00;93254.69;4990172;28;20053;-76
2022/07/01 04:26:35;;;;;;;16.42;8.63;;;;;;;17.65;100.00;93250.78;5007343;28;20121;-76
2022/07/01 04:29:02;;;;;;;16.33;8.13;;;;;;;17.74;100.00;93257.06;5009661;28;20498;-75
2022/07/01 04:31:29;;;;;;;17.23;8.40;;;;;;;17.81;100.00;93245.69;5009897;28;20537;-75
2022/07/01 04:33:56;;;;;;;13.73;8.02;;;;;;;17.89;100.00;93255.56;5009676;28;20061;-76
2022/07/01 04:36:23;;;;;;;13.00;7.35;;;;;;;17.96;100.00;93252.75;5009560;28;20058;-76
2022/07/01 04:38:50;;;;;;;14.30;8.27;;;;;;;18.01;100.00;93252.75;5009451;28;20356;-76
2022/07/01 04:44:02;;;;;;;14.30;7.88;;;;;;;18.24;100.00;93256.75;5009500;28;20073;-76
2022/07/01 04:46:29;;;;;;;15.30;7.85;;;;;;;18.16;100.00;93252.81;5009720;28;20050;-76
2022/07/01 04:48:56;;;;;;;17.25;7.35;;;;;;;18.15;100.00;93260.91;5009348;28;20053;-76
2022/07/01 04:51:23;;;;;;;11.90;6.72;;;;;;;18.12;100.00;93264.00;5009767;28;20046;-76
2022/07/01 04:53:50;;;;;;;12.35;7.65;;;;;;;18.06;100.00;93258.00;5009041;28;20524;-76
2022/07/01 04:56:18;;;;;;;11.32;7.13;;;;;;;18.03;100.00;93264.47;5009269;28;20049;-76
2022/07/01 04:58:45;;;;;;;14.75;7.60;;;;;;;18.11;100.00;93245.03;5008608;28;20409;-76
2022/07/01 05:01:12;;;;;;;10.68;6.80;;;;;;;18.17;100.00;93245.81;5008022;28;20054;-76
2022/07/01 05:03:39;;;;;;;11.65;7.00;;;;;;;18.45;100.00;93253.41;5008910;28;20064;-75
2022/07/01 05:06:06;;;;;;;9.20;6.60;;;;;;;18.57;100.00;93259.16;4996269;28;20085;-76
2022/07/01 05:08:33;;;;;;;9.80;6.50;;;;;;;18.66;100.00;93259.44;5007324;28;20092;-76
2022/07/01 05:11:00;;;;;;;11.48;6.78;;;;;;;18.81;100.00;93262.06;5009063;28;20045;-76
2022/07/01 05:13:28;;;;;;;9.32;6.32;;;;;;;18.95;100.00;93261.53;5008635;28;20473;-76
2022/07/01 05:15:55;;;;;;;11.85;5.80;;;;;;;19.03;100.00;93255.81;5008560;28;20057;-75
2022/07/01 05:23:49;;;;;;;11.15;6.85;;;;;;;19.74;100.00;93263.00;5008374;28;20060;-76
2022/07/01 05:26:17;;;;;;;9.52;6.38;;;;;;;19.92;100.00;93256.44;5008759;28;20093;-76
2022/07/01 05:28:46;;;;;;;14.60;7.50;;;;;;;20.01;99.67;93270.47;5008839;28;20140;-76
2022/07/01 05:31:12;;;;;;;16.50;7.43;;;;;;;20.15;100.00;93272.53;5008407;28;20038;-76
2022/07/01 05:33:39;;;;;;;22.83;10.30;;;;;;;20.34;99.57;93272.72;5008451;28;20517;-76
2022/07/01 05:36:06;;;;;;;17.25;8.68;;;;;;;20.47;98.96;93260.91;5008521;28;20060;-77
2022/07/01 05:38:33;;;;;;;15.73;8.93;;;;;;;20.62;94.58;93269.66;5008407;28;20049;-77
2022/07/01 05:41:00;;;;;;;26.70;12.32;;;;;;;20.81;96.28;93272.41;5009050;28;20049;-77
2022/07/01 05:43:27;;;;;;;22.70;12.25;;;;;;;20.99;95.26;93275.44;5009033;28;20047;-76
2022/07/01 05:45:55;;;;;;;29.25;15.07;;;;;;;21.01;95.10;93263.69;5008133;28;20057;-76
2022/07/01 05:48:22;;;;;;;29.48;14.25;;;;;;;21.26;95.22;93274.19;5008312;28;20499;-77
2022/07/01 05:50:49;;;;;;;37.45;15.73;;;;;;;21.40;90.82;93269.09;5007892;28;20104;-77
2022/07/01 05:53:16;;;;;;;25.35;12.98;;;;;;;21.58;87.65;93273.63;5007397;28;20061;-76
2022/07/01 05:55:43;;;;;;;21.70;11.45;;;;;;;21.75;85.39;93269.81;5007880;28;20536;-77
2022/07/01 05:58:11;;;;;;;28.27;13.93;;;;;;;22.00;83.93;93271.38;5007487;28;20057;-77
2022/07/01 06:00:41;;;;;;;30.45;12.65;;;;;;;22.26;82.87;93273.69;5008358;28;20069;-77
2022/07/01 06:03:09;;;;;;;29.38;12.10;;;;;;;22.47;84.74;93260.34;5008302;28;20560;-76
2022/07/01 06:05:36;;;;;;;20.95;11.43;;;;;;;22.86;78.85;93274.19;5008259;28;20049;-77
2022/07/01 06:08:03;;;;;;;30.27;13.15;;;;;;;23.26;79.34;93265.19;5008479;28;20466;-77
2022/07/01 06:10:30;;;;;;;39.78;14.35;;;;;;;23.64;80.05;93269.56;5008350;28;20544;-77
2022/07/01 06:12:57;;;;;;;30.77;14.48;;;;;;;23.99;78.18;93268.13;5008881;28;20046;-77
2022/07/01 06:15:24;;;;;;;24.73;11.40;;;;;;;24.41;75.47;93262.06;5011519;28;20445;-77
2022/07/01 06:17:51;;;;;;;25.25;10.85;;;;;;;24.67;71.73;93262.28;5011498;28;20042;-77
2022/07/01 06:20:19;;;;;;;27.20;13.25;;;;;;;24.51;70.70;93271.56;5011480;28;20042;-77
2022/07/01 06:22:46;;;;;;;21.23;9.88;;;;;;;24.77;67.71;93274.41;5011673;28;20042;-76
2022/07/01 06:25:14;;;;;;;25.98;12.65;;;;;;;24.67;71.85;93280.66;5002924;28;20050;-77
2022/07/01 06:27:41;;;;;;;32.38;13.50;;;;;;;24.71;71.23;93277.44;5006626;28;20100;-77
2022/07/01 06:30:09;;;;;;;35.08;12.90;;;;;;;24.42;72.02;93272.28;5011790;28;20046;-77
2022/07/01 06:32:36;;;;;;;26.83;11.77;;;;;;;24.21;71.99;93266.66;5011597;28;20046;-77
2022/07/01 06:35:03;;;;;;;21.00;10.20;;;;;;;24.60;69.99;93266.38;5011006;28;20050;-78
2022/07/01 06:37:33;;;;;;;23.65;10.52;;;;;;;25.20;68.83;93262.69;5010940;28;20513;-77
2022/07/01 06:40:00;;;;;;;19.42;9.50;;;;;;;25.48;66.04;93267.00;5010757;28;20046;-78
2022/07/01 06:42:27;;;;;;;27.17;11.40;;;;;;;25.33;63.64;93263.66;5011450;28;20045;-77
2022/07/01 06:44:53;;;;;;;20.33;7.97;;;;;;;25.69;62.96;93274.38;5011258;28;20061;-77
2022/07/01 06:47:20;;;;;;;15.73;7.35;;;;;;;25.93;62.25;93278.50;5011559;28;20104;-77
2022/07/01 06:49:47;;;;;;;26.30;12.38;;;;;;;26.24;61.02;93277.69;5011124;28;20050;-77
2022/07/01 06:52:14;;;;;;;17.42;9.27;;;;;;;26.26;59.45;93270.25;5010475;28;20093;-77
2022/07/01 06:54:42;;;;;;;22.13;8.98;;;;;;;26.76;58.46;93249.84;5010767;28;20045;-77
2022/07/01 06:57:09;;;;;;;21.23;9.55;;;;;;;27.02;58.54;93267.53;5010721;28;20513;-77
2022/07/01 06:59:36;;;;;;;17.42;8.65;;;;;;;27.47;57.82;93253.13;5011287;28;20383;-77
2022/07/01 07:02:05;;;;;;;23.05;10.55;;;;;;;28.13;57.09;93264.38;5011211;28;20096;-78
2022/07/01 07:04:32;;;;;;;24.88;11.50;;;;;;;28.28;56.33;93266.50;5010933;28;20498;-77
2022/07/01 07:06:59;;;;;;;27.35;11.98;;;;;;;28.17;55.48;93264.53;4997673;28;20450;-78
2022/07/01 07:09:26;;;;;;;25.00;13.13;;;;;;;28.46;54.02;93262.97;5010843;28;20054;-77
2022/07/01 07:11:54;;;;;;;26.60;13.48;;;;;;;28.84;52.33;93262.06;5010363;28;20560;-77
2022/07/01 07:14:21;;;;;;;29.88;12.23;;;;;;;29.19;54.46;93266.28;5010451;28;20046;-77
2022/07/01 07:16:48;;;;;;;28.80;13.55;;;;;;;29.78;52.43;93272.38;5010783;28;20469;-77
2022/07/01 07:19:14;;;;;;;26.73;12.52;;;;;;;30.10;50.57;93267.34;5010405;28;20046;-77
2022/07/01 07:21:41;;;;;;;22.23;12.18;;;;;;;30.47;48.18;93266.50;5010500;28;20049;-77
2022/07/01 07:24:10;;;;;;;32.58;11.73;;;;;;;30.59;48.33;93270.25;5010210;28;20054;-78
2022/07/01 07:26:37;;;;;;;26.52;11.98;;;;;;;30.44;47.47;93269.81;5010561;28;20046;-78
2022/07/01 07:29:05;;;;;;;27.88;11.82;;;;;;;30.88;48.83;93258.59;5010252;28;20557;-77
2022/07/01 07:31:32;;;;;;;26.02;11.43;;;;;;;31.12;48.76;93258.78;5010518;28;20056;-77
2022/07/01 07:33:59;;;;;;;26.52;10.65;;;;;;;31.57;47.10;93270.19;5010382;28;20046;-78
2022/07/01 07:36:25;;;;;;;24.48;10.35;;;;;;;31.93;46.49;93265.75;5010257;28;20418;-77
2022/07/01 07:38:52;;;;;;;20.38;9.52;;;;;;;32.12;46.22;93253.66;5009896;28;20045;-78
2022/07/01 07:41:19;;;;;;;23.02;9.43;;;;;;;32.45;45.27;93267.66;5009757;28;20126;-78
2022/07/01 07:43:47;;;;;;;19.15;8.73;;;;;;;31.92;44.71;93266.13;5009495;28;20038;-78
2022/07/01 07:46:16;;;;;;;18.30;8.07;;;;;;;31.09;44.69;93273.50;5006980;28;20048;-78
2022/07/01 07:48:43;;;;;;;16.25;7.65;;;;;;;30.73;45.95;93269.91;5009581;28;20397;-79
2022/07/01 07:51:09;;;;;;;13.18;7.00;;;;;;;30.41;47.50;93265.19;5009269;28;20045;-78
2022/07/01 07:53:36;;;;;;;14.77;6.40;;;;;;;30.00;47.63;93270.41;5009752;28;20046;-79
2022/07/01 07:56:03;;;;;;;12.32;6.28;;;;;;;29.94;50.49;93272.47;5009420;28;20061;-80
2022/07/01 07:58:30;;;;;;;15.27;5.85;;;;;;;29.29;50.56;93270.41;5008976;28;20096;-79
2022/07/01 08:00:56;;;;;;;13.48;6.28;;;;;;;29.99;50.50;93266.22;5009046;28;20137;-79
2022/07/01 08:03:25;;;;;;;12.38;5.70;;;;;;;28.91;51.48;93267.63;5009684;28;20092;-80
2022/07/01 08:05:52;;;;;;;13.45;6.22;;;;;;;29.56;53.12;93263.75;5006266;28;20057;-80
2022/07/01 08:08:19;;;;;;;11.98;5.65;;;;;;;29.15;50.79;93262.75;5010268;28;20057;-79
2022/07/01 08:10:45;;;;;;;5.90;3.97;;;;;;;29.45;46.91;93260.72;5010069;28;20080;-79
2022/07/01 08:13:12;;;;;;;7.78;3.85;;;;;;;29.90;45.06;93262.88;5009937;28;20050;-79
2022/07/01 08:15:41;;;;;;;8.52;4.13;;;;;;;30.64;49.01;93259.41;5010373;28;20072;-80
2022/07/01 08:18:08;;;;;;;10.13;4.72;;;;;;;30.90;45.60;93250.28;5007062;28;20052;-80
2022/07/01 08:20:36;;;;;;;10.98;5.13;;;;;;;31.15;46.99;93244.88;5010155;28;20046;-79
2022/07/01 08:23:03;;;;;;;13.32;5.07;;;;;;;30.52;46.63;93253.03;5009554;28;20053;-81
2022/07/01 08:25:30;;;;;;;17.75;5.88;;;;;;;31.06;47.38;93243.13;5010129;28;20054;-79
2022/07/01 08:27:57;;;;;;;11.00;5.35;;;;;;;31.80;46.78;93248.34;5010138;28;20053;-80
2022/07/01 08:30:23;;;;;;;9.48;4.97;;;;;;;32.47;45.54;93246.81;5010077;28;20065;-80
2022/07/01 08:32:50;;;;;;;9.05;5.15;;;;;;;32.21;43.92;93246.25;5010028;28;20505;-80
2022/07/01 08:35:17;;;;;;;9.70;5.13;;;;;;;32.91;44.21;93233.25;5009133;28;20049;-78
2022/07/01 08:37:45;;;;;;;11.50;6.53;;;;;;;33.35;42.61;93241.28;5009501;28;20112;-79
2022/07/01 08:40:12;;;;;;;9.23;4.43;;;;;;;33.30;42.53;93242.31;5009779;28;20108;-79
2022/07/01 08:42:39;;;;;;;14.48;5.15;;;;;;;33.55;43.51;93244.69;5009656;28;20041;-79
2022/07/01 08:45:07;;;;;;;10.65;5.32;;;;;;;33.91;40.00;93245.22;5009528;28;20486;-79
2022/07/01 08:47:34;;;;;;;8.27;5.18;;;;;;;33.85;42.21;93242.13;5009424;28;20054;-79
2022/07/01 08:50:02;;;;;;;7.68;4.38;;;;;;;33.68;39.41;93246.03;5009473;28;20073;-79
2022/07/01 08:52:29;;;;;;;8.10;4.30;;;;;;;33.90;41.68;93245.59;5009748;28;20152;-80
2022/07/01 08:54:57;;;;;;;8.35;4.63;;;;;;;34.15;41.18;93245.97;5009629;28;20121;-79
2022/07/01 08:57:24;;;;;;;10.25;4.82;;;;;;;34.26;40.88;93248.81;5009502;28;20128;-79
2022/07/01 09:00:07;;;;;;;7.57;5.07;;;;;;;33.75;41.57;93239.28;5009072;28;20561;-81
2022/07/01 09:02:53;;;;;;;18.33;5.47;;;;;;;33.88;41.77;93243.28;5007298;28;20140;-76
2022/07/01 09:05:20;;;;;;;9.75;4.85;;;;;;;33.53;42.58;93242.38;5008921;28;20046;-77
2022/07/01 09:07:48;;;;;;;10.25;5.35;;;;;;;33.82;40.23;93245.47;5009196;28;20132;-77
2022/07/01 09:10:19;;;;;;;7.10;4.55;;;;;;;32.26;41.58;93256.63;5009374;28;20045;-77
2022/07/01 09:12:46;;;;;;;14.45;4.75;;;;;;;32.80;42.96;93250.91;5009148;28;20046;-78
2022/07/01 09:15:21;;;;;;;6.40;4.53;;;;;;;33.62;42.42;93239.47;5008151;28;20073;-77
2022/07/01 09:17:48;;;;;;;11.43;4.65;;;;;;;34.34;41.22;93239.75;5008544;28;20505;-77
2022/07/01 09:20:25;;;;;;;9.00;4.80;;;;;;;34.76;39.95;93232.69;5009153;28;20096;-77
2022/07/01 09:23:02;;;;;;;6.93;4.00;;;;;;;34.83;38.44;93244.56;5008074;28;20510;-80
2022/07/01 09:25:34;;;;;;;4.65;3.15;;;;;;;35.05;38.43;93242.91;5008881;28;20041;-80
2022/07/01 09:28:19;;;;;;;5.45;3.45;;;;;;;33.70;40.90;93248.34;5008884;28;20077;-80
2022/07/01 09:30:49;;;;;;;6.72;3.38;;;;;;;33.50;41.74;93234.31;5009156;28;20414;-80
2022/07/01 09:33:17;;;;;;;5.95;3.50;;;;;;;33.51;40.41;93243.81;5008933;28;20573;-79
2022/07/01 09:35:46;;;;;;;6.05;3.20;;;;;;;34.10;41.45;93232.94;5008592;28;20548;-80
2022/07/01 09:38:15;;;;;;;5.38;3.47;;;;;;;34.71;39.75;93246.34;4995390;28;20145;-79
2022/07/01 09:40:55;;;;;;;4.10;3.30;;;;;;;33.77;40.25;93240.47;5008596;28;20049;-79
2022/07/01 09:43:24;;;;;;;7.65;4.45;;;;;;;33.66;39.79;93245.63;4995985;28;20046;-78
2022/07/01 09:45:56;;;;;;;4.32;3.22;;;;;;;32.81;41.11;93231.16;5008881;28;20057;-82
2022/07/01 09:48:25;;;;;;;4.35;3.35;;;;;;;32.25;42.97;93233.81;5010003;28;20092;-77
2022/07/01 09:50:52;;;;;;;5.82;3.35;;;;;;;32.89;40.04;93232.06;4996288;28;20054;-77
2022/07/01 09:53:19;;;;;;;5.93;3.10;;;;;;;33.08;41.96;93233.97;5010668;28;20046;-77
2022/07/01 09:55:46;;;;;;;9.88;4.72;;;;;;;32.98;41.29;93221.22;5012888;28;20469;-78
2022/07/01 09:58:15;;;;;;;6.00;3.72;;;;;;;32.75;41.68;93228.03;5012094;28;20050;-80
2022/07/01 10:00:42;;;;;;;7.55;3.45;;;;;;;33.15;40.71;93226.13;5012226;28;20065;-78
2022/07/01 10:03:09;;;;;;;9.20;4.15;;;;;;;33.49;39.91;93212.22;5012657;28;20049;-78
2022/07/01 10:05:42;;;;;;;8.48;3.45;;;;;;;33.70;39.14;93211.06;5012302;28;20045;-77
2022/07/01 10:08:39;;;;;;;8.48;3.22;;;;;;;34.10;39.29;93215.09;5012131;28;20564;-78
2022/07/01 10:11:43;;;;;;;4.25;3.40;;;;;;;34.54;38.54;93218.31;5007449;28;20050;-79
2022/07/01 10:14:14;;;;;;;7.93;3.58;;;;;;;34.41;39.17;93214.31;4986994;28;20054;-79
2022/07/01 10:16:41;;;;;;;5.60;3.55;;;;;;;34.39;39.49;93217.38;5011957;28;20046;-78
2022/07/01 10:19:26;;;;;;;6.03;3.53;;;;;;;33.94;40.07;93214.44;5012252;28;20115;-79
2022/07/01 10:21:56;;;;;;;5.30;3.80;;;;;;;33.27;39.98;93213.78;5011868;28;20548;-78
2022/07/01 10:24:25;;;;;;;6.28;3.53;;;;;;;33.16;41.04;93214.34;5012452;28;20084;-78
2022/07/01 10:26:52;;;;;;;6.05;4.00;;;;;;;33.62;39.99;93210.16;5011703;28;20145;-78
2022/07/01 10:29:34;;;;;;;7.53;3.78;;;;;;;33.01;39.59;93205.34;5011748;28;20046;-78
2022/07/01 10:32:03;;;;;;;8.90;4.53;;;;;;;33.11;41.12;93203.22;5012014;28;20042;-79
2022/07/01 10:34:37;;;;;;;4.88;3.90;;;;;;;33.59;40.12;93208.22;5012477;28;20096;-78
2022/07/01 10:37:08;;;;;;;8.35;4.25;;;;;;;34.28;38.70;93201.22;5012146;28;20057;-79
2022/07/01 10:39:58;;;;;;;4.93;3.53;;;;;;;34.63;37.61;93204.72;5012125;28;20046;-78
2022/07/01 10:42:32;;;;;;;6.75;3.58;;;;;;;33.92;38.13;93200.72;5011641;28;20057;-79
2022/07/01 10:45:07;;;;;;;6.40;3.72;;;;;;;33.13;38.38;93195.66;5011808;28;20477;-79
2022/07/01 10:47:34;;;;;;;6.72;3.33;;;;;;;31.65;41.04;93199.47;5011523;28;20096;-79
2022/07/01 10:50:05;;;;;;;4.78;3.50;;;;;;;31.87;40.91;93182.16;5012033;28;20056;-78
2022/07/01 10:52:33;;;;;;;4.78;3.65;;;;;;;32.26;42.15;93184.13;5011659;28;20045;-79
2022/07/01 10:55:00;;;;;;;4.85;3.63;;;;;;;33.06;39.55;93185.66;5011729;28;20060;-79
2022/07/01 10:57:30;;;;;;;8.05;4.00;;;;;;;33.59;38.60;93187.69;5011358;28;20061;-79
2022/07/01 11:00:37;;;;;;;4.50;3.38;;;;;;;33.10;37.00;93180.38;5010675;28;20054;-78
2022/07/01 11:03:19;;;;;;;6.80;3.55;;;;;;;32.02;38.40;93191.19;5005538;28;20058;-79
2022/07/01 11:05:47;;;;;;;5.63;3.33;;;;;;;31.80;37.62;93185.38;4999468;28;20042;-78
2022/07/01 11:08:14;;;;;;;4.47;3.30;;;;;;;32.20;36.92;93170.31;5006693;28;20057;-79
2022/07/01 11:10:42;;;;;;;5.30;2.97;;;;;;;31.94;35.72;93189.50;5011340;28;20041;-78
2022/07/01 11:13:13;;;;;;;4.53;3.45;;;;;;;32.61;38.80;93178.00;5011291;28;20132;-78
2022/07/01 11:15:41;;;;;;;5.25;3.30;;;;;;;32.26;35.25;93176.91;5011347;28;20437;-78
2022/07/01 11:18:08;;;;;;;5.57;3.47;;;;;;;32.09;37.12;93170.09;5010692;28;20494;-79
2022/07/01 11:20:35;;;;;;;6.32;3.70;;;;;;;32.92;36.25;93176.25;5011336;28;20089;-79
2022/07/01 11:23:01;;;;;;;4.75;3.45;;;;;;;32.22;36.14;93180.59;5011145;28;20445;-78
2022/07/01 11:25:30;;;;;;;4.40;3.35;;;;;;;32.60;35.91;93173.78;5011033;28;20042;-78
2022/07/01 11:27:57;;;;;;;3.85;3.08;;;;;;;32.65;35.80;93176.16;5011020;28;20057;-79
2022/07/01 11:30:24;;;;;;;6.68;3.65;;;;;;;32.86;35.62;93171.59;5010901;28;20050;-79
2022/07/01 11:32:55;;;;;;;6.82;3.90;;;;;;;32.32;36.01;93172.09;5010564;28;20045;-78
2022/07/01 11:40:55;;;;;;;4.03;3.03;;;;;;;32.19;34.33;93174.09;5010298;28;20060;-77
2022/07/01 11:43:24;;;;;;;4.65;3.20;;;;;;;32.38;34.94;93167.25;5010582;28;20181;-78
2022/07/01 11:45:51;;;;;;;4.45;3.28;;;;;;;32.26;34.08;93160.19;5010637;28;20049;-78
2022/07/01 11:48:34;;;;;;;6.10;2.90;;;;;;;33.04;34.42;93163.97;4996136;28;20089;-79